createdAt,value
2019-01-13T00:00:23.931Z,8.10
2019-01-13T00:02:51.188Z,8.10
2019-01-13T00:05:18.882Z,8.10
2019-01-13T00:07:49.866Z,8.00
2019-01-13T00:10:18.212Z,8.00
2019-01-13T00:12:46.472Z,8.00
2019-01-13T00:15:14.912Z,7.90
2019-01-13T00:17:43.461Z,7.90
2019-01-13T00:20:16.006Z,8.00
2019-01-13T00:22:44.041Z,8.00
2019-01-13T00:25:12.795Z,8.10
2019-01-13T00:27:41.150Z,8.10
2019-01-13T00:30:18.844Z,8.20
2019-01-13T00:32:42.694Z,8.20
2019-01-13T00:35:10.114Z,8.30
2019-01-13T00:37:37.634Z,8.20
2019-01-13T00:40:09.143Z,8.30
2019-01-13T00:42:37.309Z,8.20
2019-01-13T00:45:09.862Z,8.20
2019-01-13T00:47:38.109Z,8.30
2019-01-13T00:50:09.954Z,8.30
2019-01-13T00:52:38.150Z,8.20
2019-01-13T00:55:07.262Z,8.20
2019-01-13T00:57:38.691Z,8.20
2019-01-13T01:00:11.009Z,8.30
2019-01-13T01:02:38.543Z,8.30
2019-01-13T01:05:07.317Z,8.30
2019-01-13T01:07:37.659Z,8.30
2019-01-13T01:10:08.461Z,8.30
2019-01-13T01:12:36.632Z,8.20
2019-01-13T01:15:06.145Z,8.30
2019-01-13T01:17:34.865Z,8.30
2019-01-13T01:20:04.430Z,8.30
2019-01-13T01:22:31.804Z,8.30
2019-01-13T01:24:59.023Z,8.30
2019-01-13T01:27:26.134Z,8.30
2019-01-13T01:29:57.422Z,8.20
2019-01-13T01:32:26.261Z,8.30
2019-01-13T01:34:54.982Z,8.30
2019-01-13T01:37:23.074Z,8.30
2019-01-13T01:39:50.986Z,8.40
2019-01-13T01:42:19.142Z,8.30
2019-01-13T01:44:47.445Z,8.40
2019-01-13T01:47:16.157Z,8.30
2019-01-13T01:49:44.683Z,8.40
2019-01-13T01:52:11.805Z,8.40
2019-01-13T01:54:38.853Z,8.40
2019-01-13T01:57:06.446Z,8.50
2019-01-13T01:59:33.799Z,8.50
2019-01-13T02:02:01.834Z,8.50
2019-01-13T02:04:29.981Z,8.50
2019-01-13T02:06:58.506Z,8.60
2019-01-13T02:09:26.879Z,8.50
2019-01-13T02:11:55.595Z,8.50
2019-01-13T02:14:23.700Z,8.40
2019-01-13T02:16:51.810Z,8.40
2019-01-13T02:19:20.313Z,8.40
2019-01-13T02:21:48.794Z,8.40
2019-01-13T02:24:16.452Z,8.50
2019-01-13T02:26:43.359Z,8.50
2019-01-13T02:29:10.370Z,8.50
2019-01-13T02:31:38.252Z,8.40
2019-01-13T02:34:06.232Z,8.40
2019-01-13T02:36:34.125Z,8.40
2019-01-13T02:39:04.065Z,8.40
2019-01-13T02:41:32.121Z,8.40
2019-01-13T02:44:00.133Z,8.40
2019-01-13T02:46:28.167Z,8.40
2019-01-13T02:48:56.074Z,8.40
2019-01-13T02:51:24.018Z,8.40
2019-01-13T02:53:51.922Z,8.30
2019-01-13T02:56:19.030Z,8.30
2019-01-13T02:58:45.982Z,8.40
2019-01-13T03:01:13.255Z,8.40
2019-01-13T03:03:40.177Z,8.40
2019-01-13T03:06:08.771Z,8.40
2019-01-13T03:08:37.014Z,8.40
2019-01-13T03:11:05.370Z,8.30
2019-01-13T03:13:33.912Z,8.40
2019-01-13T03:16:01.845Z,8.30
2019-01-13T03:18:30.180Z,8.30
2019-01-13T03:20:58.334Z,8.30
2019-01-13T03:23:26.678Z,8.30
2019-01-13T03:25:55.046Z,8.30
2019-01-13T03:28:22.176Z,8.30
2019-01-13T03:30:49.974Z,8.30
2019-01-13T03:33:17.632Z,8.30
2019-01-13T03:35:46.132Z,8.30
2019-01-13T03:38:14.377Z,8.20
2019-01-13T03:40:42.750Z,8.20
2019-01-13T03:43:11.105Z,8.20
2019-01-13T03:45:39.129Z,8.20
2019-01-13T03:48:07.517Z,8.30
2019-01-13T03:50:35.790Z,8.30
2019-01-13T03:53:04.142Z,8.30
2019-01-13T03:55:32.376Z,8.20
2019-01-13T03:57:59.725Z,8.20
2019-01-13T04:00:27.238Z,8.30
2019-01-13T04:02:54.607Z,8.40
2019-01-13T04:05:21.914Z,8.30
2019-01-13T04:07:50.627Z,8.30
2019-01-13T04:10:19.217Z,8.20
2019-01-13T04:12:47.915Z,8.30
2019-01-13T04:15:57.572Z,8.30
2019-01-13T04:18:26.198Z,8.20
2019-01-13T04:20:54.557Z,8.20
2019-01-13T04:23:23.577Z,8.30
2019-01-13T04:25:52.086Z,8.30
2019-01-13T04:28:20.361Z,8.30
2019-01-13T04:30:48.370Z,8.20
2019-01-13T04:33:16.810Z,8.30
2019-01-13T04:35:45.474Z,8.30
2019-01-13T04:38:13.894Z,8.40
2019-01-13T04:40:41.292Z,8.30
2019-01-13T04:43:09.040Z,8.30
2019-01-13T04:45:36.450Z,8.20
2019-01-13T04:48:03.925Z,8.20
2019-01-13T04:50:31.522Z,8.20
2019-01-13T04:53:04.382Z,8.30
2019-01-13T04:55:33.062Z,8.30
2019-01-13T04:58:01.069Z,8.30
2019-01-13T05:00:29.422Z,8.30
2019-01-13T05:02:57.876Z,8.30
2019-01-13T05:05:26.135Z,8.30
2019-01-13T05:07:54.294Z,8.40
2019-01-13T05:10:22.307Z,8.30
2019-01-13T05:12:50.905Z,8.30
2019-01-13T05:15:18.253Z,8.30
2019-01-13T05:17:45.276Z,8.40
2019-01-13T05:20:14.240Z,8.50
2019-01-13T05:22:41.347Z,8.40
2019-01-13T05:25:09.473Z,8.40
2019-01-13T05:27:37.477Z,8.30
2019-01-13T05:30:09.253Z,8.40
2019-01-13T05:32:38.493Z,8.40
2019-01-13T05:35:06.604Z,8.50
2019-01-13T05:37:34.517Z,8.40
2019-01-13T05:40:03.998Z,8.50
2019-01-13T05:42:32.145Z,8.50
2019-01-13T05:45:00.293Z,8.60
2019-01-13T05:47:27.318Z,8.60
2019-01-13T05:49:54.330Z,8.50
2019-01-13T05:52:21.457Z,8.40
2019-01-13T05:54:48.573Z,8.50
2019-01-13T05:57:16.479Z,8.40
2019-01-13T05:59:44.397Z,8.40
2019-01-13T06:02:12.291Z,8.50
2019-01-13T06:04:40.406Z,8.40
2019-01-13T06:07:08.324Z,8.40
2019-01-13T06:09:36.238Z,8.40
2019-01-13T06:12:04.237Z,8.40
2019-01-13T06:14:32.214Z,8.50
2019-01-13T06:17:00.208Z,8.50
2019-01-13T06:19:27.240Z,8.40
2019-01-13T06:21:54.145Z,8.40
2019-01-13T06:24:21.037Z,8.40
2019-01-13T06:26:47.954Z,8.50
2019-01-13T06:29:18.573Z,8.40
2019-01-13T06:31:46.490Z,8.40
2019-01-13T06:34:14.498Z,8.40
2019-01-13T06:36:42.525Z,8.40
2019-01-13T06:39:10.434Z,8.40
2019-01-13T06:41:38.423Z,8.40
2019-01-13T06:44:06.512Z,8.40
2019-01-13T06:46:34.619Z,8.40
2019-01-13T06:49:01.955Z,8.40
2019-01-13T06:51:28.944Z,8.40
2019-01-13T06:53:57.006Z,8.50
2019-01-13T06:56:24.114Z,8.50
2019-01-13T06:58:54.821Z,8.40
2019-01-13T07:01:22.930Z,8.40
2019-01-13T07:03:51.009Z,8.50
2019-01-13T07:06:19.643Z,8.50
2019-01-13T07:08:48.814Z,8.50
2019-01-13T07:11:16.969Z,8.60
2019-01-13T07:13:45.121Z,8.50
2019-01-13T07:16:13.372Z,8.40
2019-01-13T07:18:41.269Z,8.40
2019-01-13T07:21:09.615Z,8.50
2019-01-13T07:23:36.833Z,8.50
2019-01-13T07:26:04.853Z,8.50
2019-01-13T07:28:34.297Z,8.50
2019-01-13T07:31:02.653Z,8.50
2019-01-13T07:33:31.167Z,8.50
2019-01-13T07:35:59.416Z,8.60
2019-01-13T07:38:28.254Z,8.60
2019-01-13T07:40:56.762Z,8.50
2019-01-13T07:43:25.025Z,8.50
2019-01-13T07:45:53.178Z,8.50
2019-01-13T07:48:20.783Z,8.60
2019-01-13T07:50:48.172Z,8.60
2019-01-13T07:53:15.417Z,8.70
2019-01-13T07:55:42.562Z,8.70
2019-01-13T07:58:10.768Z,8.70
2019-01-13T08:00:39.027Z,8.70
2019-01-13T08:03:07.630Z,8.70
2019-01-13T08:05:35.988Z,8.70
2019-01-13T08:08:03.995Z,8.80
2019-01-13T08:10:32.598Z,8.70
2019-01-13T08:13:00.992Z,8.80
2019-01-13T08:15:29.089Z,8.80
2019-01-13T08:17:58.905Z,8.80
2019-01-13T08:20:31.015Z,8.80
2019-01-13T08:22:58.625Z,8.90
2019-01-13T08:25:26.021Z,8.90
2019-01-13T08:27:54.644Z,8.90
2019-01-13T08:30:23.066Z,8.90
2019-01-13T08:32:51.714Z,9.00
2019-01-13T08:35:20.158Z,9.00
2019-01-13T08:37:48.317Z,9.10
2019-01-13T08:40:18.849Z,9.10
2019-01-13T08:42:47.351Z,9.10
2019-01-13T08:45:14.858Z,9.10
2019-01-13T08:47:42.610Z,9.10
2019-01-13T08:50:15.586Z,9.10
2019-01-13T08:52:42.591Z,9.10
2019-01-13T08:55:10.197Z,9.20
2019-01-13T08:57:37.854Z,9.20
2019-01-13T09:00:11.710Z,9.20
2019-01-13T09:02:39.862Z,9.30
2019-01-13T09:05:08.139Z,9.30
2019-01-13T09:07:36.457Z,9.20
2019-01-13T09:10:06.705Z,9.30
2019-01-13T09:12:34.734Z,9.30
2019-01-13T09:15:05.262Z,9.40
2019-01-13T09:17:33.377Z,9.30
2019-01-13T09:20:01.285Z,9.40
2019-01-13T09:22:28.604Z,9.40
2019-01-13T09:24:55.741Z,9.40
2019-01-13T09:27:23.514Z,9.50
2019-01-13T09:29:51.661Z,9.50
2019-01-13T09:32:19.578Z,9.50
2019-01-13T09:34:47.801Z,9.50
2019-01-13T09:37:15.918Z,9.50
2019-01-13T09:39:44.094Z,9.50
2019-01-13T09:42:12.373Z,9.60
2019-01-13T09:44:40.626Z,9.60
2019-01-13T09:47:08.889Z,9.50
2019-01-13T09:49:37.651Z,9.60
2019-01-13T09:52:05.109Z,9.60
2019-01-13T09:54:32.525Z,9.60
2019-01-13T09:57:00.555Z,9.60
2019-01-13T09:59:28.426Z,9.60
2019-01-13T10:01:56.542Z,9.70
2019-01-13T10:04:24.717Z,9.70
2019-01-13T10:06:52.635Z,9.60
2019-01-13T10:09:20.557Z,9.70
2019-01-13T10:11:48.613Z,9.60
2019-01-13T10:14:16.629Z,9.60
2019-01-13T10:16:46.226Z,9.60
2019-01-13T10:19:13.283Z,9.50
2019-01-13T10:21:40.463Z,9.60
2019-01-13T10:24:07.619Z,9.60
2019-01-13T10:26:35.621Z,9.60
2019-01-13T10:29:03.849Z,9.60
2019-01-13T10:31:31.877Z,9.60
2019-01-13T10:34:02.649Z,9.60
2019-01-13T10:36:30.661Z,9.60
2019-01-13T10:38:59.208Z,9.60
2019-01-13T10:41:27.426Z,9.60
2019-01-13T10:43:55.334Z,9.60
2019-01-13T10:46:23.774Z,9.60
2019-01-13T10:48:51.025Z,9.60
2019-01-13T10:51:19.018Z,9.60
2019-01-13T10:53:46.281Z,9.60
2019-01-13T10:56:13.314Z,9.60
2019-01-13T10:58:40.314Z,9.50
2019-01-13T11:01:08.659Z,9.50
2019-01-13T11:03:36.678Z,9.60
2019-01-13T11:06:04.823Z,9.60
2019-01-13T11:08:33.030Z,9.70
2019-01-13T11:11:01.239Z,9.70
2019-01-13T11:13:29.242Z,9.70
2019-01-13T11:15:57.396Z,9.70
2019-01-13T11:18:25.324Z,9.80
2019-01-13T11:20:52.325Z,9.70
2019-01-13T11:23:19.329Z,9.80
2019-01-13T11:25:46.333Z,9.80
2019-01-13T11:28:13.585Z,9.70
2019-01-13T11:30:41.742Z,9.70
2019-01-13T11:33:10.016Z,9.70
2019-01-13T11:35:38.242Z,9.70
2019-01-13T11:38:07.026Z,9.60
2019-01-13T11:40:35.144Z,9.60
2019-01-13T11:43:03.358Z,9.70
2019-01-13T11:45:31.546Z,9.70
2019-01-13T11:47:59.910Z,9.80
2019-01-13T11:50:28.932Z,9.80
2019-01-13T11:52:56.462Z,9.70
2019-01-13T11:55:23.977Z,9.80
2019-01-13T11:58:02.949Z,9.80
2019-01-13T12:00:38.893Z,9.90
2019-01-13T12:03:07.037Z,9.80
2019-01-13T12:05:34.630Z,9.80
2019-01-13T12:08:03.497Z,9.80
2019-01-13T12:10:32.446Z,9.80
2019-01-13T12:13:00.550Z,9.80
2019-01-13T12:15:28.919Z,9.80
2019-01-13T12:18:02.285Z,9.70
2019-01-13T12:20:30.429Z,9.70
2019-01-13T12:22:58.830Z,9.70
2019-01-13T12:25:26.997Z,9.80
2019-01-13T12:27:56.542Z,9.80
2019-01-13T12:30:26.416Z,9.70
2019-01-13T12:32:54.132Z,9.70
2019-01-13T12:35:22.013Z,9.70
2019-01-13T12:37:49.775Z,9.80
2019-01-13T12:40:19.371Z,9.70
2019-01-13T12:42:48.250Z,9.60
2019-01-13T12:45:19.128Z,9.70
2019-01-13T12:47:47.250Z,9.70
2019-01-13T12:50:17.709Z,9.60
2019-01-13T12:52:46.258Z,9.60
2019-01-13T12:55:14.832Z,9.60
2019-01-13T12:57:42.264Z,9.60
2019-01-13T13:00:11.654Z,9.60
2019-01-13T13:02:39.116Z,9.60
2019-01-13T13:05:07.495Z,9.60
2019-01-13T13:07:34.410Z,9.70
2019-01-13T13:10:08.180Z,9.70
2019-01-13T13:12:36.427Z,9.60
2019-01-13T13:15:06.130Z,9.60
2019-01-13T13:17:34.565Z,9.60
2019-01-13T13:20:04.230Z,9.60
2019-01-13T13:22:32.274Z,9.60
2019-01-13T13:25:01.980Z,9.50
2019-01-13T13:27:31.273Z,9.60
2019-01-13T13:29:58.606Z,9.60
2019-01-13T13:32:26.409Z,9.60
2019-01-13T13:34:55.858Z,9.60
2019-01-13T13:37:25.648Z,9.60
2019-01-13T13:39:54.787Z,9.50
2019-01-13T13:42:24.017Z,9.50
2019-01-13T13:46:04.832Z,9.50
2019-01-13T13:48:50.959Z,9.60
2019-01-13T13:51:21.841Z,9.50
2019-01-13T13:53:50.007Z,9.50
2019-01-13T13:56:18.965Z,9.50
2019-01-13T13:58:48.252Z,9.60
2019-01-13T14:01:18.598Z,9.60
2019-01-13T14:03:47.410Z,9.50
2019-01-13T14:06:19.510Z,9.50
2019-01-13T14:08:48.349Z,9.50
2019-01-13T14:11:17.531Z,9.50
2019-01-13T14:13:46.447Z,9.50
2019-01-13T14:16:14.367Z,9.50
2019-01-13T14:18:42.254Z,9.50
2019-01-13T14:21:09.939Z,9.60
2019-01-13T14:23:40.656Z,9.60
2019-01-13T14:26:09.464Z,9.60
2019-01-13T14:28:41.364Z,9.50
2019-01-13T14:31:11.407Z,9.50
2019-01-13T14:33:43.810Z,9.50
2019-01-13T14:36:14.607Z,9.50
2019-01-13T14:38:43.743Z,9.50
2019-01-13T14:41:12.976Z,9.50
2019-01-13T14:43:41.606Z,9.50
2019-01-13T14:46:10.035Z,9.50
2019-01-13T14:48:38.920Z,9.60
2019-01-13T14:51:06.649Z,9.50
2019-01-13T14:53:34.542Z,9.50
2019-01-13T14:56:02.824Z,9.50
2019-01-13T14:58:31.395Z,9.50
2019-01-13T15:01:00.167Z,9.50
2019-01-13T15:03:28.706Z,9.40
2019-01-13T15:05:57.814Z,9.40
2019-01-13T15:08:26.523Z,9.40
2019-01-13T15:10:56.427Z,9.50
2019-01-13T15:13:24.565Z,9.50
2019-01-13T15:15:51.841Z,9.50
2019-01-13T15:18:19.167Z,9.50
2019-01-13T15:20:46.089Z,9.40
2019-01-13T15:23:13.997Z,9.40
2019-01-13T15:25:41.980Z,9.50
2019-01-13T15:28:10.502Z,9.50
2019-01-13T15:30:38.865Z,9.40
2019-01-13T15:33:07.880Z,9.40
2019-01-13T15:35:36.230Z,9.40
2019-01-13T15:38:04.896Z,9.30
2019-01-13T15:40:34.105Z,9.40
2019-01-13T15:43:07.865Z,9.50
2019-01-13T15:45:36.924Z,9.50
2019-01-13T15:48:05.554Z,9.50
2019-01-13T15:50:34.340Z,9.50
2019-01-13T15:53:03.381Z,9.40
2019-01-13T15:55:30.858Z,9.40
2019-01-13T15:58:02.730Z,9.40
2019-01-13T16:00:32.773Z,9.40
2019-01-13T16:03:01.217Z,9.50
2019-01-13T16:05:29.361Z,9.40
2019-01-13T16:07:58.576Z,9.40
2019-01-13T16:10:27.581Z,9.50
2019-01-13T16:12:56.225Z,9.50
2019-01-13T16:15:25.057Z,9.50
2019-01-13T16:17:52.962Z,9.50
2019-01-13T16:20:23.549Z,9.50
2019-01-13T16:22:50.954Z,9.70
2019-01-13T16:25:18.329Z,9.50
2019-01-13T16:27:48.361Z,9.50
2019-01-13T16:30:19.102Z,9.50
2019-01-13T16:32:47.667Z,9.60
2019-01-13T16:35:16.225Z,9.50
2019-01-13T16:37:44.876Z,9.50
2019-01-13T16:40:15.157Z,9.60
2019-01-13T16:42:44.649Z,9.50
2019-01-13T16:45:13.543Z,9.50
2019-01-13T16:47:41.985Z,9.50
2019-01-13T16:50:15.309Z,9.50
2019-01-13T16:52:46.833Z,9.40
2019-01-13T16:55:14.719Z,9.50
2019-01-13T16:57:44.688Z,9.60
2019-01-13T17:00:15.424Z,9.50
2019-01-13T17:02:43.640Z,9.50
2019-01-13T17:05:13.045Z,9.50
2019-01-13T17:07:42.451Z,9.50
2019-01-13T17:10:14.265Z,9.50
2019-01-13T17:12:42.380Z,9.50
2019-01-13T17:15:12.483Z,9.40
2019-01-13T17:17:40.580Z,9.40
2019-01-13T17:20:11.684Z,9.50
2019-01-13T17:22:40.009Z,9.40
2019-01-13T17:25:07.889Z,9.50
2019-01-13T17:27:34.799Z,9.60
2019-01-13T17:30:03.727Z,9.50
2019-01-13T17:32:30.925Z,9.50
2019-01-13T17:34:58.240Z,9.50
2019-01-13T17:37:26.231Z,9.50
2019-01-13T17:39:54.224Z,9.60
2019-01-13T17:42:22.338Z,9.60
2019-01-13T17:44:50.271Z,9.50
2019-01-13T17:47:18.830Z,9.50
2019-01-13T17:49:46.904Z,9.40
2019-01-13T17:52:15.221Z,9.30
2019-01-13T17:54:42.353Z,9.00
2019-01-13T17:57:09.657Z,8.70
2019-01-13T17:59:36.616Z,8.60
2019-01-13T18:02:05.134Z,8.40
2019-01-13T18:04:33.709Z,8.30
2019-01-13T18:07:01.617Z,8.00
2019-01-13T18:09:30.823Z,8.00
2019-01-13T18:11:59.489Z,8.10
2019-01-13T18:14:35.447Z,8.00
2019-01-13T18:17:17.308Z,7.90
2019-01-13T18:19:48.192Z,7.90
2019-01-13T18:22:19.553Z,7.80
2019-01-13T18:24:46.783Z,7.70
2019-01-13T18:27:14.265Z,7.80
2019-01-13T18:29:41.894Z,7.80
2019-01-13T18:32:13.151Z,7.70
2019-01-13T18:34:50.096Z,7.80
2019-01-13T18:37:13.814Z,7.70
2019-01-13T18:39:42.176Z,7.70
2019-01-13T18:42:10.171Z,7.70
2019-01-13T18:44:39.190Z,7.80
2019-01-13T18:47:08.090Z,7.90
2019-01-13T18:49:36.217Z,7.90
2019-01-13T18:52:03.948Z,8.00
2019-01-13T18:54:31.723Z,8.10
2019-01-13T18:56:59.010Z,8.10
2019-01-13T18:59:26.169Z,8.10
2019-01-13T19:01:53.489Z,8.20
2019-01-13T19:04:21.482Z,8.20
2019-01-13T19:06:49.614Z,8.40
2019-01-13T19:09:17.915Z,8.40
2019-01-13T19:11:49.419Z,8.30
2019-01-13T19:14:47.760Z,8.30
2019-01-13T19:17:23.925Z,8.30
2019-01-13T19:20:15.392Z,8.20
2019-01-13T19:22:45.716Z,8.30
2019-01-13T19:25:25.866Z,8.30
2019-01-13T19:27:54.239Z,8.30
2019-01-13T19:30:22.713Z,8.40
2019-01-13T19:32:50.770Z,8.40
2019-01-13T19:35:19.479Z,8.40
2019-01-13T19:37:47.676Z,8.40
2019-01-13T19:40:16.633Z,8.40
2019-01-13T19:42:45.897Z,8.40
2019-01-13T19:45:16.946Z,8.40
2019-01-13T19:47:45.893Z,8.50
2019-01-13T19:50:15.158Z,8.40
2019-01-13T19:52:42.313Z,8.40
2019-01-13T19:55:11.362Z,8.40
2019-01-13T19:57:39.538Z,8.50
2019-01-13T20:00:12.325Z,8.40
2019-01-13T20:02:40.224Z,8.40
2019-01-13T20:05:11.956Z,8.40
2019-01-13T20:07:38.261Z,8.40
2019-01-13T20:10:08.431Z,8.40
2019-01-13T20:12:36.700Z,8.40
2019-01-13T20:15:07.030Z,8.50
2019-01-13T20:17:35.462Z,8.50
2019-01-13T20:20:08.182Z,8.50
2019-01-13T20:22:35.480Z,8.40
2019-01-13T20:25:04.746Z,8.30
2019-01-13T20:27:31.813Z,8.30
2019-01-13T20:29:59.256Z,8.30
2019-01-13T20:32:27.247Z,8.10
2019-01-13T20:34:55.173Z,8.10
2019-01-13T20:37:23.513Z,8.00
2019-01-13T20:39:51.471Z,7.90
2019-01-13T20:42:20.029Z,7.90
2019-01-13T20:44:48.044Z,8.00
2019-01-13T20:47:16.049Z,7.90
2019-01-13T20:49:44.052Z,8.00
2019-01-13T20:52:12.163Z,8.00
2019-01-13T20:54:40.262Z,8.00
2019-01-13T20:57:08.525Z,7.90
2019-01-13T20:59:35.446Z,8.10
2019-01-13T21:02:02.572Z,8.10
2019-01-13T21:04:29.661Z,8.20
2019-01-13T21:06:56.574Z,8.20
2019-01-13T21:09:24.624Z,8.20
2019-01-13T21:11:52.898Z,8.20
2019-01-13T21:14:20.954Z,8.30
2019-01-13T21:16:49.617Z,8.30
2019-01-13T21:22:13.359Z,8.20
2019-01-13T21:24:42.450Z,8.20
2019-01-13T21:27:10.651Z,8.10
2019-01-13T21:29:38.651Z,8.10
2019-01-13T21:32:06.679Z,8.20
2019-01-13T21:34:34.874Z,8.20
2019-01-13T21:37:03.178Z,8.30
2019-01-13T21:39:30.299Z,8.30
2019-01-13T21:41:58.242Z,8.40
2019-01-13T21:44:26.600Z,8.40
2019-01-13T21:46:55.351Z,8.30
2019-01-13T21:49:23.833Z,8.40
2019-01-13T21:51:52.241Z,8.30
2019-01-13T21:54:21.161Z,8.40
2019-01-13T21:56:49.725Z,8.40
2019-01-13T21:59:17.844Z,8.40
2019-01-13T22:01:46.984Z,8.40
2019-01-13T22:04:15.833Z,8.40
2019-01-13T22:06:44.192Z,8.30
2019-01-13T22:09:11.682Z,8.20
2019-01-13T22:11:39.349Z,8.20
2019-01-13T22:14:09.604Z,8.20
2019-01-13T22:16:36.991Z,8.10
2019-01-13T22:19:05.466Z,8.10
2019-01-13T22:21:40.070Z,8.00
2019-01-13T22:24:08.648Z,8.00
2019-01-13T22:26:37.367Z,8.00
2019-01-13T22:29:05.716Z,7.90
2019-01-13T22:31:34.550Z,7.90
2019-01-13T22:34:03.348Z,7.90
2019-01-13T22:36:31.950Z,7.80
2019-01-13T22:38:59.827Z,7.70
2019-01-13T22:41:27.733Z,7.70
2019-01-13T22:43:55.599Z,7.70
2019-01-13T22:46:23.222Z,7.70
2019-01-13T22:48:50.807Z,7.70
2019-01-13T22:51:18.698Z,7.60
2019-01-13T22:53:46.465Z,7.60
2019-01-13T22:56:15.552Z,7.70
2019-01-13T22:58:44.945Z,7.80
2019-01-13T23:01:28.578Z,7.80
2019-01-13T23:04:00.811Z,7.70
2019-01-13T23:06:29.047Z,7.70
2019-01-13T23:08:57.317Z,7.70
2019-01-13T23:11:31.427Z,7.60
2019-01-13T23:13:59.592Z,7.60
2019-01-13T23:16:27.560Z,7.60
2019-01-13T23:18:55.809Z,7.50
2019-01-13T23:21:22.976Z,7.60
2019-01-13T23:23:50.075Z,7.60
2019-01-13T23:26:18.208Z,7.70
2019-01-13T23:28:45.502Z,7.60
2019-01-13T23:31:13.277Z,7.70
2019-01-13T23:33:41.697Z,7.60
2019-01-13T23:36:10.390Z,7.60
2019-01-13T23:38:38.659Z,7.70
2019-01-13T23:41:07.349Z,7.80
2019-01-13T23:43:35.621Z,7.80
2019-01-13T23:46:05.538Z,7.70
2019-01-13T23:48:33.901Z,7.80
2019-01-13T23:51:02.469Z,7.80
2019-01-13T23:53:30.214Z,7.80
2019-01-13T23:55:57.852Z,7.80
2019-01-13T23:58:25.041Z,7.80
